sensor_id;sensor_type;location;lat;lon;timestamp;P1;durP1;ratioP1;P2;durP2;ratioP2
3415;SDS011;1721;51.238;9.562;2024-01-10T00:01:31;1.13;;;0.63;;
3415;SDS011;1721;51.238;9.562;2024-01-10T00:03:57;0.90;;;0.60;;
3415;SDS011;1721;51.238;9.562;2024-01-10T00:06:23;1.70;;;1.27;;
3415;SDS011;1721;51.238;9.562;2024-01-10T00:08:49;4.03;;;1.43;;
3415;SDS011;1721;51.238;9.562;2024-01-10T00:11:14;5.57;;;2.35;;
3415;SDS011;1721;51.238;9.562;2024-01-10T00:13:40;7.00;;;1.50;;
3415;SDS011;1721;51.238;9.562;2024-01-10T00:16:06;4.03;;;1.83;;
3415;SDS011;1721;51.238;9.562;2024-01-10T00:18:31;2.00;;;1.83;;
3415;SDS011;1721;51.238;9.562;2024-01-10T00:20:58;2.00;;;1.60;;
3415;SDS011;1721;51.238;9.562;2024-01-10T00:23:23;1.30;;;1.03;;
3415;SDS011;1721;51.238;9.562;2024-01-10T00:25:49;5.97;;;3.63;;
3415;SDS011;1721;51.238;9.562;2024-01-10T00:28:15;1.13;;;1.00;;
3415;SDS011;1721;51.238;9.562;2024-01-10T00:30:42;3.53;;;2.75;;
3415;SDS011;1721;51.238;9.562;2024-01-10T00:33:13;9.77;;;3.00;;
3415;SDS011;1721;51.238;9.562;2024-01-10T00:35:38;2.60;;;1.17;;
3415;SDS011;1721;51.238;9.562;2024-01-10T00:38:04;2.40;;;2.03;;
3415;SDS011;1721;51.238;9.562;2024-01-10T00:40:29;1.23;;;1.07;;
3415;SDS011;1721;51.238;9.562;2024-01-10T00:42:55;4.73;;;1.60;;
3415;SDS011;1721;51.238;9.562;2024-01-10T00:45:20;3.30;;;1.13;;
3415;SDS011;1721;51.238;9.562;2024-01-10T00:47:48;7.03;;;2.10;;
3415;SDS011;1721;51.238;9.562;2024-01-10T00:50:13;18.35;;;2.40;;
3415;SDS011;1721;51.238;9.562;2024-01-10T00:52:39;3.40;;;1.63;;
3415;SDS011;1721;51.238;9.562;2024-01-10T00:55:05;1.47;;;1.33;;
3415;SDS011;1721;51.238;9.562;2024-01-10T00:57:30;1.60;;;1.23;;
3415;SDS011;1721;51.238;9.562;2024-01-10T00:59:56;4.50;;;1.30;;
3415;SDS011;1721;51.238;9.562;2024-01-10T01:02:21;3.23;;;2.40;;
3415;SDS011;1721;51.238;9.562;2024-01-10T01:04:47;2.47;;;0.70;;
3415;SDS011;1721;51.238;9.562;2024-01-10T01:07:12;1.83;;;0.97;;
3415;SDS011;1721;51.238;9.562;2024-01-10T01:09:38;2.20;;;1.50;;
3415;SDS011;1721;51.238;9.562;2024-01-10T01:12:04;6.43;;;2.57;;
3415;SDS011;1721;51.238;9.562;2024-01-10T01:14:30;5.88;;;3.13;;
3415;SDS011;1721;51.238;9.562;2024-01-10T01:16:55;2.38;;;1.42;;
3415;SDS011;1721;51.238;9.562;2024-01-10T01:19:21;0.80;;;0.53;;
3415;SDS011;1721;51.238;9.562;2024-01-10T01:21:47;3.80;;;2.43;;
3415;SDS011;1721;51.238;9.562;2024-01-10T01:24:12;1.47;;;1.23;;
3415;SDS011;1721;51.238;9.562;2024-01-10T01:26:38;1.30;;;1.03;;
3415;SDS011;1721;51.238;9.562;2024-01-10T01:29:03;4.20;;;1.50;;
3415;SDS011;1721;51.238;9.562;2024-01-10T01:31:29;3.60;;;1.83;;
3415;SDS011;1721;51.238;9.562;2024-01-10T01:33:55;10.98;;;3.20;;
3415;SDS011;1721;51.238;9.562;2024-01-10T01:36:20;2.37;;;1.63;;
3415;SDS011;1721;51.238;9.562;2024-01-10T01:38:46;6.67;;;3.00;;
3415;SDS011;1721;51.238;9.562;2024-01-10T01:41:11;5.10;;;1.43;;
3415;SDS011;1721;51.238;9.562;2024-01-10T01:43:39;0.80;;;0.52;;
3415;SDS011;1721;51.238;9.562;2024-01-10T01:46:05;8.40;;;2.47;;
3415;SDS011;1721;51.238;9.562;2024-01-10T01:48:32;10.82;;;1.58;;
3415;SDS011;1721;51.238;9.562;2024-01-10T01:51:00;1.80;;;1.60;;
3415;SDS011;1721;51.238;9.562;2024-01-10T01:53:27;1.35;;;0.90;;
3415;SDS011;1721;51.238;9.562;2024-01-10T01:55:54;2.45;;;1.90;;
3415;SDS011;1721;51.238;9.562;2024-01-10T01:58:20;2.87;;;2.20;;
3415;SDS011;1721;51.238;9.562;2024-01-10T02:00:47;9.75;;;3.28;;
3415;SDS011;1721;51.238;9.562;2024-01-10T02:03:13;4.90;;;1.83;;
3415;SDS011;1721;51.238;9.562;2024-01-10T02:05:39;3.03;;;1.67;;
3415;SDS011;1721;51.238;9.562;2024-01-10T02:08:05;2.00;;;1.47;;
3415;SDS011;1721;51.238;9.562;2024-01-10T02:10:30;0.80;;;0.60;;
3415;SDS011;1721;51.238;9.562;2024-01-10T02:12:56;3.63;;;1.00;;
3415;SDS011;1721;51.238;9.562;2024-01-10T02:15:22;1.53;;;0.87;;
3415;SDS011;1721;51.238;9.562;2024-01-10T02:17:49;5.93;;;2.78;;
3415;SDS011;1721;51.238;9.562;2024-01-10T02:20:15;12.67;;;5.43;;
3415;SDS011;1721;51.238;9.562;2024-01-10T02:22:45;7.18;;;5.13;;
3415;SDS011;1721;51.238;9.562;2024-01-10T02:25:12;5.50;;;3.35;;
3415;SDS011;1721;51.238;9.562;2024-01-10T02:27:39;3.25;;;2.13;;
3415;SDS011;1721;51.238;9.562;2024-01-10T02:30:05;1.30;;;0.80;;
3415;SDS011;1721;51.238;9.562;2024-01-10T02:32:32;3.50;;;3.10;;
3415;SDS011;1721;51.238;9.562;2024-01-10T02:34:58;1.75;;;1.25;;
3415;SDS011;1721;51.238;9.562;2024-01-10T02:37:24;2.30;;;1.33;;
3415;SDS011;1721;51.238;9.562;2024-01-10T02:39:50;5.03;;;2.97;;
3415;SDS011;1721;51.238;9.562;2024-01-10T02:42:15;2.90;;;1.47;;
3415;SDS011;1721;51.238;9.562;2024-01-10T02:44:41;9.27;;;1.67;;
3415;SDS011;1721;51.238;9.562;2024-01-10T02:47:07;1.60;;;1.20;;
3415;SDS011;1721;51.238;9.562;2024-01-10T02:49:33;2.40;;;1.33;;
3415;SDS011;1721;51.238;9.562;2024-01-10T02:51:59;4.33;;;2.97;;
3415;SDS011;1721;51.238;9.562;2024-01-10T02:54:25;4.05;;;3.15;;
3415;SDS011;1721;51.238;9.562;2024-01-10T02:56:51;1.23;;;1.13;;
3415;SDS011;1721;51.238;9.562;2024-01-10T02:59:16;4.30;;;1.83;;
3415;SDS011;1721;51.238;9.562;2024-01-10T03:01:42;6.90;;;2.57;;
3415;SDS011;1721;51.238;9.562;2024-01-10T03:04:08;5.03;;;2.85;;
3415;SDS011;1721;51.238;9.562;2024-01-10T03:06:34;7.60;;;1.43;;
3415;SDS011;1721;51.238;9.562;2024-01-10T03:09:00;4.30;;;2.63;;
3415;SDS011;1721;51.238;9.562;2024-01-10T03:11:25;3.27;;;0.87;;
3415;SDS011;1721;51.238;9.562;2024-01-10T03:13:51;3.00;;;2.50;;
3415;SDS011;1721;51.238;9.562;2024-01-10T03:16:25;5.78;;;1.40;;
3415;SDS011;1721;51.238;9.562;2024-01-10T03:18:51;1.77;;;1.20;;
3415;SDS011;1721;51.238;9.562;2024-01-10T03:21:16;3.73;;;0.67;;
3415;SDS011;1721;51.238;9.562;2024-01-10T03:23:49;3.35;;;2.38;;
3415;SDS011;1721;51.238;9.562;2024-01-10T03:26:15;6.30;;;3.05;;
3415;SDS011;1721;51.238;9.562;2024-01-10T03:28:41;6.30;;;2.37;;
3415;SDS011;1721;51.238;9.562;2024-01-10T03:31:06;9.60;;;2.10;;
3415;SDS011;1721;51.238;9.562;2024-01-10T03:33:32;6.07;;;2.10;;
3415;SDS011;1721;51.238;9.562;2024-01-10T03:35:57;3.87;;;2.40;;
3415;SDS011;1721;51.238;9.562;2024-01-10T03:38:23;12.40;;;1.90;;
3415;SDS011;1721;51.238;9.562;2024-01-10T03:40:48;1.93;;;1.50;;
3415;SDS011;1721;51.238;9.562;2024-01-10T03:43:14;5.17;;;2.30;;
3415;SDS011;1721;51.238;9.562;2024-01-10T03:45:41;4.15;;;1.45;;
3415;SDS011;1721;51.238;9.562;2024-01-10T03:48:07;1.23;;;1.08;;
3415;SDS011;1721;51.238;9.562;2024-01-10T03:50:33;2.57;;;2.10;;
3415;SDS011;1721;51.238;9.562;2024-01-10T03:52:58;3.80;;;2.70;;
3415;SDS011;1721;51.238;9.562;2024-01-10T03:55:24;1.10;;;0.87;;
3415;SDS011;1721;51.238;9.562;2024-01-10T03:57:50;4.53;;;3.07;;
3415;SDS011;1721;51.238;9.562;2024-01-10T04:00:15;2.50;;;1.13;;
3415;SDS011;1721;51.238;9.562;2024-01-10T04:02:41;2.97;;;1.77;;
3415;SDS011;1721;51.238;9.562;2024-01-10T04:05:07;5.40;;;2.07;;
3415;SDS011;1721;51.238;9.562;2024-01-10T04:07:34;6.68;;;1.77;;
3415;SDS011;1721;51.238;9.562;2024-01-10T04:10:01;5.28;;;1.23;;
3415;SDS011;1721;51.238;9.562;2024-01-10T04:12:27;2.30;;;1.63;;
3415;SDS011;1721;51.238;9.562;2024-01-10T04:14:53;2.93;;;2.10;;
3415;SDS011;1721;51.238;9.562;2024-01-10T04:17:18;4.67;;;2.50;;
3415;SDS011;1721;51.238;9.562;2024-01-10T04:19:44;1.13;;;1.03;;
3415;SDS011;1721;51.238;9.562;2024-01-10T04:22:09;12.90;;;3.63;;
3415;SDS011;1721;51.238;9.562;2024-01-10T04:24:35;1.43;;;1.33;;
3415;SDS011;1721;51.238;9.562;2024-01-10T04:27:01;4.07;;;2.27;;
3415;SDS011;1721;51.238;9.562;2024-01-10T04:29:26;1.40;;;1.13;;
3415;SDS011;1721;51.238;9.562;2024-01-10T04:31:52;3.87;;;2.73;;
3415;SDS011;1721;51.238;9.562;2024-01-10T04:34:17;2.03;;;1.10;;
3415;SDS011;1721;51.238;9.562;2024-01-10T04:36:43;2.03;;;1.30;;
3415;SDS011;1721;51.238;9.562;2024-01-10T04:39:09;5.87;;;3.57;;
3415;SDS011;1721;51.238;9.562;2024-01-10T04:41:35;1.47;;;1.27;;
3415;SDS011;1721;51.238;9.562;2024-01-10T04:44:00;3.27;;;2.97;;
3415;SDS011;1721;51.238;9.562;2024-01-10T04:46:26;5.57;;;2.20;;
3415;SDS011;1721;51.238;9.562;2024-01-10T04:48:51;4.83;;;1.97;;
3415;SDS011;1721;51.238;9.562;2024-01-10T04:51:17;1.60;;;1.20;;
3415;SDS011;1721;51.238;9.562;2024-01-10T04:53:42;1.23;;;1.10;;
3415;SDS011;1721;51.238;9.562;2024-01-10T04:56:08;5.70;;;1.43;;
3415;SDS011;1721;51.238;9.562;2024-01-10T04:58:33;1.87;;;0.63;;
3415;SDS011;1721;51.238;9.562;2024-01-10T05:01:00;7.57;;;2.65;;
3415;SDS011;1721;51.238;9.562;2024-01-10T05:03:25;4.07;;;2.30;;
3415;SDS011;1721;51.238;9.562;2024-01-10T05:05:51;22.37;;;3.33;;
3415;SDS011;1721;51.238;9.562;2024-01-10T05:08:16;2.40;;;1.47;;
3415;SDS011;1721;51.238;9.562;2024-01-10T05:10:45;1.77;;;1.38;;
3415;SDS011;1721;51.238;9.562;2024-01-10T05:13:10;8.93;;;2.03;;
3415;SDS011;1721;51.238;9.562;2024-01-10T05:15:37;8.07;;;2.35;;
3415;SDS011;1721;51.238;9.562;2024-01-10T05:18:02;5.93;;;2.20;;
3415;SDS011;1721;51.238;9.562;2024-01-10T05:20:28;14.90;;;3.80;;
3415;SDS011;1721;51.238;9.562;2024-01-10T05:22:53;3.93;;;1.93;;
3415;SDS011;1721;51.238;9.562;2024-01-10T05:25:23;3.55;;;2.00;;
3415;SDS011;1721;51.238;9.562;2024-01-10T05:27:49;2.80;;;1.37;;
3415;SDS011;1721;51.238;9.562;2024-01-10T05:30:14;3.13;;;1.13;;
3415;SDS011;1721;51.238;9.562;2024-01-10T05:32:40;15.33;;;3.90;;
3415;SDS011;1721;51.238;9.562;2024-01-10T05:35:05;2.50;;;1.87;;
3415;SDS011;1721;51.238;9.562;2024-01-10T05:37:31;1.20;;;1.00;;
3415;SDS011;1721;51.238;9.562;2024-01-10T05:39:57;0.70;;;0.50;;
3415;SDS011;1721;51.238;9.562;2024-01-10T05:42:23;4.63;;;2.97;;
3415;SDS011;1721;51.238;9.562;2024-01-10T05:44:49;1.47;;;1.37;;
3415;SDS011;1721;51.238;9.562;2024-01-10T05:47:15;4.70;;;2.05;;
3415;SDS011;1721;51.238;9.562;2024-01-10T05:49:40;13.47;;;1.83;;
3415;SDS011;1721;51.238;9.562;2024-01-10T05:52:07;1.40;;;1.10;;
3415;SDS011;1721;51.238;9.562;2024-01-10T05:54:33;6.83;;;1.80;;
3415;SDS011;1721;51.238;9.562;2024-01-10T05:56:58;3.93;;;1.00;;
3415;SDS011;1721;51.238;9.562;2024-01-10T05:59:25;2.80;;;2.17;;
3415;SDS011;1721;51.238;9.562;2024-01-10T06:01:51;9.87;;;2.00;;
3415;SDS011;1721;51.238;9.562;2024-01-10T06:04:17;3.43;;;2.23;;
3415;SDS011;1721;51.238;9.562;2024-01-10T06:06:42;5.50;;;2.00;;
3415;SDS011;1721;51.238;9.562;2024-01-10T06:09:09;7.28;;;2.55;;
3415;SDS011;1721;51.238;9.562;2024-01-10T06:11:40;22.33;;;4.25;;
3415;SDS011;1721;51.238;9.562;2024-01-10T06:14:06;5.22;;;2.85;;
3415;SDS011;1721;51.238;9.562;2024-01-10T06:16:32;7.73;;;3.80;;
3415;SDS011;1721;51.238;9.562;2024-01-10T06:18:57;2.77;;;2.13;;
3415;SDS011;1721;51.238;9.562;2024-01-10T06:21:23;1.97;;;1.13;;
3415;SDS011;1721;51.238;9.562;2024-01-10T06:23:48;6.20;;;3.63;;
3415;SDS011;1721;51.238;9.562;2024-01-10T06:26:14;9.17;;;3.67;;
3415;SDS011;1721;51.238;9.562;2024-01-10T06:28:40;3.77;;;3.43;;
3415;SDS011;1721;51.238;9.562;2024-01-10T06:31:06;6.72;;;3.17;;
3415;SDS011;1721;51.238;9.562;2024-01-10T06:33:31;12.30;;;3.97;;
3415;SDS011;1721;51.238;9.562;2024-01-10T06:35:57;4.50;;;1.97;;
3415;SDS011;1721;51.238;9.562;2024-01-10T06:38:23;8.90;;;2.00;;
3415;SDS011;1721;51.238;9.562;2024-01-10T06:40:49;3.70;;;2.13;;
3415;SDS011;1721;51.238;9.562;2024-01-10T06:43:15;2.95;;;2.20;;
3415;SDS011;1721;51.238;9.562;2024-01-10T06:45:41;3.10;;;2.87;;
3415;SDS011;1721;51.238;9.562;2024-01-10T06:48:07;2.28;;;1.67;;
3415;SDS011;1721;51.238;9.562;2024-01-10T06:50:33;5.20;;;2.53;;
3415;SDS011;1721;51.238;9.562;2024-01-10T06:52:59;3.07;;;2.77;;
3415;SDS011;1721;51.238;9.562;2024-01-10T06:55:24;2.23;;;1.67;;
3415;SDS011;1721;51.238;9.562;2024-01-10T06:57:51;6.63;;;2.85;;
3415;SDS011;1721;51.238;9.562;2024-01-10T07:00:18;3.55;;;1.45;;
3415;SDS011;1721;51.238;9.562;2024-01-10T07:02:46;8.90;;;2.20;;
3415;SDS011;1721;51.238;9.562;2024-01-10T07:05:11;2.90;;;2.53;;
3415;SDS011;1721;51.238;9.562;2024-01-10T07:07:37;1.10;;;0.90;;
3415;SDS011;1721;51.238;9.562;2024-01-10T07:10:03;2.03;;;1.50;;
3415;SDS011;1721;51.238;9.562;2024-01-10T07:12:32;2.28;;;1.80;;
3415;SDS011;1721;51.238;9.562;2024-01-10T07:14:59;10.18;;;2.65;;
3415;SDS011;1721;51.238;9.562;2024-01-10T07:17:25;1.67;;;1.20;;
3415;SDS011;1721;51.238;9.562;2024-01-10T07:19:50;6.77;;;2.93;;
3415;SDS011;1721;51.238;9.562;2024-01-10T07:22:16;8.43;;;3.90;;
3415;SDS011;1721;51.238;9.562;2024-01-10T07:24:43;11.55;;;3.95;;
3415;SDS011;1721;51.238;9.562;2024-01-10T07:27:09;6.13;;;2.20;;
3415;SDS011;1721;51.238;9.562;2024-01-10T07:29:35;1.63;;;1.23;;
3415;SDS011;1721;51.238;9.562;2024-01-10T07:32:00;3.90;;;3.50;;
3415;SDS011;1721;51.238;9.562;2024-01-10T07:34:26;5.90;;;4.20;;
3415;SDS011;1721;51.238;9.562;2024-01-10T07:36:51;3.40;;;2.00;;
3415;SDS011;1721;51.238;9.562;2024-01-10T07:39:19;3.85;;;3.28;;
3415;SDS011;1721;51.238;9.562;2024-01-10T07:41:44;4.63;;;2.60;;
3415;SDS011;1721;51.238;9.562;2024-01-10T07:44:10;4.00;;;1.80;;
3415;SDS011;1721;51.238;9.562;2024-01-10T07:46:36;7.80;;;2.40;;
3415;SDS011;1721;51.238;9.562;2024-01-10T07:49:04;7.07;;;2.92;;
3415;SDS011;1721;51.238;9.562;2024-01-10T07:51:30;2.37;;;1.50;;
3415;SDS011;1721;51.238;9.562;2024-01-10T07:53:56;4.32;;;3.47;;
3415;SDS011;1721;51.238;9.562;2024-01-10T07:56:21;7.33;;;2.67;;
3415;SDS011;1721;51.238;9.562;2024-01-10T07:58:47;5.07;;;2.93;;
3415;SDS011;1721;51.238;9.562;2024-01-10T08:01:14;5.93;;;3.42;;
3415;SDS011;1721;51.238;9.562;2024-01-10T08:03:40;10.07;;;1.40;;
3415;SDS011;1721;51.238;9.562;2024-01-10T08:06:06;13.77;;;3.67;;
3415;SDS011;1721;51.238;9.562;2024-01-10T08:08:31;5.47;;;1.93;;
3415;SDS011;1721;51.238;9.562;2024-01-10T08:10:57;3.73;;;2.33;;
3415;SDS011;1721;51.238;9.562;2024-01-10T08:13:22;16.50;;;2.40;;
3415;SDS011;1721;51.238;9.562;2024-01-10T08:15:49;7.50;;;3.58;;
3415;SDS011;1721;51.238;9.562;2024-01-10T08:18:14;9.73;;;4.77;;
3415;SDS011;1721;51.238;9.562;2024-01-10T08:20:40;10.20;;;3.43;;
3415;SDS011;1721;51.238;9.562;2024-01-10T08:23:06;7.70;;;3.80;;
3415;SDS011;1721;51.238;9.562;2024-01-10T08:25:31;6.60;;;3.90;;
3415;SDS011;1721;51.238;9.562;2024-01-10T08:27:57;3.90;;;3.60;;
3415;SDS011;1721;51.238;9.562;2024-01-10T08:30:22;6.13;;;2.90;;
3415;SDS011;1721;51.238;9.562;2024-01-10T08:32:49;4.35;;;2.90;;
3415;SDS011;1721;51.238;9.562;2024-01-10T08:35:14;5.07;;;3.40;;
3415;SDS011;1721;51.238;9.562;2024-01-10T08:37:40;12.93;;;3.40;;
3415;SDS011;1721;51.238;9.562;2024-01-10T08:40:10;5.95;;;2.20;;
3415;SDS011;1721;51.238;9.562;2024-01-10T08:42:37;10.63;;;6.18;;
3415;SDS011;1721;51.238;9.562;2024-01-10T08:45:03;2.40;;;2.05;;
3415;SDS011;1721;51.238;9.562;2024-01-10T08:47:30;1.38;;;1.05;;
3415;SDS011;1721;51.238;9.562;2024-01-10T08:50:01;20.63;;;2.88;;
3415;SDS011;1721;51.238;9.562;2024-01-10T08:52:27;20.75;;;6.20;;
3415;SDS011;1721;51.238;9.562;2024-01-10T08:54:52;4.77;;;2.93;;
3415;SDS011;1721;51.238;9.562;2024-01-10T08:57:18;7.03;;;4.97;;
3415;SDS011;1721;51.238;9.562;2024-01-10T08:59:43;7.63;;;3.20;;
3415;SDS011;1721;51.238;9.562;2024-01-10T09:02:09;8.60;;;3.97;;
3415;SDS011;1721;51.238;9.562;2024-01-10T09:04:35;13.70;;;4.60;;
3415;SDS011;1721;51.238;9.562;2024-01-10T09:07:01;9.83;;;2.73;;
3415;SDS011;1721;51.238;9.562;2024-01-10T09:09:26;10.60;;;4.43;;
3415;SDS011;1721;51.238;9.562;2024-01-10T09:11:52;10.40;;;4.47;;
3415;SDS011;1721;51.238;9.562;2024-01-10T09:14:18;5.00;;;2.50;;
3415;SDS011;1721;51.238;9.562;2024-01-10T09:16:44;4.05;;;2.55;;
3415;SDS011;1721;51.238;9.562;2024-01-10T09:19:10;2.70;;;2.20;;
3415;SDS011;1721;51.238;9.562;2024-01-10T09:21:35;11.90;;;3.27;;
3415;SDS011;1721;51.238;9.562;2024-01-10T09:24:01;10.18;;;3.25;;
3415;SDS011;1721;51.238;9.562;2024-01-10T09:26:30;10.38;;;5.28;;
3415;SDS011;1721;51.238;9.562;2024-01-10T09:28:56;12.60;;;4.80;;
3415;SDS011;1721;51.238;9.562;2024-01-10T09:31:21;10.53;;;5.33;;
3415;SDS011;1721;51.238;9.562;2024-01-10T09:33:46;18.87;;;7.23;;
3415;SDS011;1721;51.238;9.562;2024-01-10T09:36:12;8.70;;;4.87;;
3415;SDS011;1721;51.238;9.562;2024-01-10T09:38:39;6.75;;;3.50;;
3415;SDS011;1721;51.238;9.562;2024-01-10T09:41:05;6.20;;;3.50;;
3415;SDS011;1721;51.238;9.562;2024-01-10T09:43:31;8.13;;;4.60;;
3415;SDS011;1721;51.238;9.562;2024-01-10T09:45:58;5.72;;;4.28;;
3415;SDS011;1721;51.238;9.562;2024-01-10T09:48:25;10.43;;;4.13;;
3415;SDS011;1721;51.238;9.562;2024-01-10T09:50:51;5.15;;;2.58;;
3415;SDS011;1721;51.238;9.562;2024-01-10T09:53:21;5.70;;;2.93;;
3415;SDS011;1721;51.238;9.562;2024-01-10T09:55:51;7.43;;;2.97;;
3415;SDS011;1721;51.238;9.562;2024-01-10T09:58:17;21.23;;;4.88;;
3415;SDS011;1721;51.238;9.562;2024-01-10T10:00:43;9.80;;;3.80;;
3415;SDS011;1721;51.238;9.562;2024-01-10T10:03:09;8.77;;;4.27;;
3415;SDS011;1721;51.238;9.562;2024-01-10T10:05:37;5.05;;;3.63;;
3415;SDS011;1721;51.238;9.562;2024-01-10T10:08:03;21.60;;;6.30;;
3415;SDS011;1721;51.238;9.562;2024-01-10T10:10:32;8.43;;;4.80;;
3415;SDS011;1721;51.238;9.562;2024-01-10T10:12:57;10.40;;;5.20;;
3415;SDS011;1721;51.238;9.562;2024-01-10T10:15:23;13.37;;;6.10;;
3415;SDS011;1721;51.238;9.562;2024-01-10T10:17:52;7.97;;;4.47;;
3415;SDS011;1721;51.238;9.562;2024-01-10T10:20:20;11.73;;;3.05;;
3415;SDS011;1721;51.238;9.562;2024-01-10T10:22:57;11.00;;;4.00;;
3415;SDS011;1721;51.238;9.562;2024-01-10T10:25:26;16.13;;;3.95;;
3415;SDS011;1721;51.238;9.562;2024-01-10T10:27:58;17.05;;;5.05;;
3415;SDS011;1721;51.238;9.562;2024-01-10T10:30:24;9.70;;;5.13;;
3415;SDS011;1721;51.238;9.562;2024-01-10T10:32:50;23.17;;;5.45;;
3415;SDS011;1721;51.238;9.562;2024-01-10T10:35:18;11.33;;;4.33;;
3415;SDS011;1721;51.238;9.562;2024-01-10T10:37:45;10.93;;;4.20;;
3415;SDS011;1721;51.238;9.562;2024-01-10T10:40:12;7.82;;;3.28;;
3415;SDS011;1721;51.238;9.562;2024-01-10T10:42:39;10.30;;;3.27;;
3415;SDS011;1721;51.238;9.562;2024-01-10T10:45:12;3.17;;;2.58;;
3415;SDS011;1721;51.238;9.562;2024-01-10T10:47:42;13.27;;;5.13;;
3415;SDS011;1721;51.238;9.562;2024-01-10T10:50:13;18.02;;;3.80;;
3415;SDS011;1721;51.238;9.562;2024-01-10T10:52:50;12.73;;;4.25;;
3415;SDS011;1721;51.238;9.562;2024-01-10T10:55:17;10.70;;;4.55;;
3415;SDS011;1721;51.238;9.562;2024-01-10T10:57:47;14.05;;;5.60;;
3415;SDS011;1721;51.238;9.562;2024-01-10T11:00:13;10.85;;;4.55;;
3415;SDS011;1721;51.238;9.562;2024-01-10T11:02:43;19.92;;;4.25;;
3415;SDS011;1721;51.238;9.562;2024-01-10T11:05:09;14.75;;;5.00;;
3415;SDS011;1721;51.238;9.562;2024-01-10T11:07:35;11.57;;;5.20;;
3415;SDS011;1721;51.238;9.562;2024-01-10T11:10:02;16.13;;;5.55;;
3415;SDS011;1721;51.238;9.562;2024-01-10T11:12:46;10.55;;;3.60;;
3415;SDS011;1721;51.238;9.562;2024-01-10T11:18:07;7.38;;;4.03;;
3415;SDS011;1721;51.238;9.562;2024-01-10T11:23:35;14.52;;;7.05;;
3415;SDS011;1721;51.238;9.562;2024-01-10T11:26:10;12.82;;;4.70;;
3415;SDS011;1721;51.238;9.562;2024-01-10T11:28:36;15.67;;;3.90;;
3415;SDS011;1721;51.238;9.562;2024-01-10T11:31:08;10.50;;;4.97;;
3415;SDS011;1721;51.238;9.562;2024-01-10T11:33:35;12.00;;;3.97;;
3415;SDS011;1721;51.238;9.562;2024-01-10T11:36:19;11.65;;;3.70;;
3415;SDS011;1721;51.238;9.562;2024-01-10T11:41:26;9.70;;;4.45;;
3415;SDS011;1721;51.238;9.562;2024-01-10T11:44:25;4.82;;;2.88;;
3415;SDS011;1721;51.238;9.562;2024-01-10T11:46:52;14.10;;;5.75;;
3415;SDS011;1721;51.238;9.562;2024-01-10T11:49:19;11.40;;;3.25;;
3415;SDS011;1721;51.238;9.562;2024-01-10T11:51:46;17.15;;;3.40;;
3415;SDS011;1721;51.238;9.562;2024-01-10T11:57:23;8.05;;;4.00;;
3415;SDS011;1721;51.238;9.562;2024-01-10T11:59:53;11.43;;;4.65;;
3415;SDS011;1721;51.238;9.562;2024-01-10T12:02:20;17.00;;;5.50;;
3415;SDS011;1721;51.238;9.562;2024-01-10T12:04:48;15.98;;;4.50;;
3415;SDS011;1721;51.238;9.562;2024-01-10T12:07:14;14.77;;;4.40;;
3415;SDS011;1721;51.238;9.562;2024-01-10T12:09:41;18.48;;;6.72;;
3415;SDS011;1721;51.238;9.562;2024-01-10T12:12:06;12.30;;;4.90;;
3415;SDS011;1721;51.238;9.562;2024-01-10T12:14:33;16.27;;;7.37;;
3415;SDS011;1721;51.238;9.562;2024-01-10T12:16:59;11.88;;;4.60;;
3415;SDS011;1721;51.238;9.562;2024-01-10T12:19:25;12.55;;;3.30;;
3415;SDS011;1721;51.238;9.562;2024-01-10T12:21:51;9.03;;;3.77;;
3415;SDS011;1721;51.238;9.562;2024-01-10T12:24:17;18.70;;;6.82;;
3415;SDS011;1721;51.238;9.562;2024-01-10T12:26:46;16.45;;;4.45;;
3415;SDS011;1721;51.238;9.562;2024-01-10T12:29:13;12.68;;;3.38;;
3415;SDS011;1721;51.238;9.562;2024-01-10T12:31:42;8.57;;;3.60;;
3415;SDS011;1721;51.238;9.562;2024-01-10T12:34:10;15.82;;;5.13;;
3415;SDS011;1721;51.238;9.562;2024-01-10T12:36:36;24.20;;;7.90;;
3415;SDS011;1721;51.238;9.562;2024-01-10T12:39:02;15.57;;;4.32;;
3415;SDS011;1721;51.238;9.562;2024-01-10T12:41:28;14.07;;;5.32;;
3415;SDS011;1721;51.238;9.562;2024-01-10T12:43:53;9.60;;;3.60;;
3415;SDS011;1721;51.238;9.562;2024-01-10T12:46:22;22.00;;;5.68;;
3415;SDS011;1721;51.238;9.562;2024-01-10T12:49:01;17.13;;;6.55;;
3415;SDS011;1721;51.238;9.562;2024-01-10T12:51:30;9.65;;;4.82;;
3415;SDS011;1721;51.238;9.562;2024-01-10T12:53:56;11.45;;;4.32;;
3415;SDS011;1721;51.238;9.562;2024-01-10T12:56:26;15.25;;;5.75;;
3415;SDS011;1721;51.238;9.562;2024-01-10T12:58:53;8.95;;;4.07;;
3415;SDS011;1721;51.238;9.562;2024-01-10T13:01:20;18.05;;;3.85;;
3415;SDS011;1721;51.238;9.562;2024-01-10T13:03:46;11.05;;;3.70;;
3415;SDS011;1721;51.238;9.562;2024-01-10T13:06:13;13.80;;;5.45;;
3415;SDS011;1721;51.238;9.562;2024-01-10T13:08:39;14.80;;;5.00;;
3415;SDS011;1721;51.238;9.562;2024-01-10T13:11:04;15.97;;;5.60;;
3415;SDS011;1721;51.238;9.562;2024-01-10T13:13:34;18.52;;;5.72;;
3415;SDS011;1721;51.238;9.562;2024-01-10T13:16:03;9.30;;;4.00;;
3415;SDS011;1721;51.238;9.562;2024-01-10T13:18:29;10.02;;;4.32;;
3415;SDS011;1721;51.238;9.562;2024-01-10T13:20:54;9.20;;;3.90;;
3415;SDS011;1721;51.238;9.562;2024-01-10T13:23:20;11.45;;;5.38;;
3415;SDS011;1721;51.238;9.562;2024-01-10T13:25:52;16.45;;;5.05;;
3415;SDS011;1721;51.238;9.562;2024-01-10T13:28:18;11.07;;;5.05;;
3415;SDS011;1721;51.238;9.562;2024-01-10T13:30:44;21.63;;;4.97;;
3415;SDS011;1721;51.238;9.562;2024-01-10T13:33:10;12.77;;;3.50;;
3415;SDS011;1721;51.238;9.562;2024-01-10T13:35:36;8.30;;;4.10;;
3415;SDS011;1721;51.238;9.562;2024-01-10T13:38:02;13.30;;;4.43;;
3415;SDS011;1721;51.238;9.562;2024-01-10T13:40:27;19.60;;;6.47;;
3415;SDS011;1721;51.238;9.562;2024-01-10T13:42:53;15.30;;;5.23;;
3415;SDS011;1721;51.238;9.562;2024-01-10T13:45:19;19.40;;;5.70;;
3415;SDS011;1721;51.238;9.562;2024-01-10T13:47:45;14.90;;;5.35;;
3415;SDS011;1721;51.238;9.562;2024-01-10T13:50:11;10.52;;;4.93;;
3415;SDS011;1721;51.238;9.562;2024-01-10T13:52:37;14.33;;;7.13;;
3415;SDS011;1721;51.238;9.562;2024-01-10T13:55:03;12.30;;;5.10;;
3415;SDS011;1721;51.238;9.562;2024-01-10T13:57:32;23.15;;;7.18;;
3415;SDS011;1721;51.238;9.562;2024-01-10T13:59:58;20.73;;;6.23;;
3415;SDS011;1721;51.238;9.562;2024-01-10T14:02:24;9.45;;;4.00;;
3415;SDS011;1721;51.238;9.562;2024-01-10T14:04:50;12.60;;;5.20;;
3415;SDS011;1721;51.238;9.562;2024-01-10T14:07:16;12.82;;;4.55;;
3415;SDS011;1721;51.238;9.562;2024-01-10T14:09:42;8.87;;;5.40;;
3415;SDS011;1721;51.238;9.562;2024-01-10T14:12:08;12.50;;;4.93;;
3415;SDS011;1721;51.238;9.562;2024-01-10T14:14:33;18.50;;;6.63;;
3415;SDS011;1721;51.238;9.562;2024-01-10T14:16:59;20.53;;;5.73;;
3415;SDS011;1721;51.238;9.562;2024-01-10T14:19:25;12.63;;;5.17;;
3415;SDS011;1721;51.238;9.562;2024-01-10T14:21:51;16.42;;;5.15;;
3415;SDS011;1721;51.238;9.562;2024-01-10T14:24:17;10.30;;;4.77;;
3415;SDS011;1721;51.238;9.562;2024-01-10T14:26:42;15.87;;;4.93;;
3415;SDS011;1721;51.238;9.562;2024-01-10T14:29:08;11.70;;;4.25;;
3415;SDS011;1721;51.238;9.562;2024-01-10T14:31:34;13.67;;;4.97;;
3415;SDS011;1721;51.238;9.562;2024-01-10T14:34:00;21.30;;;5.53;;
3415;SDS011;1721;51.238;9.562;2024-01-10T14:36:25;12.33;;;5.07;;
3415;SDS011;1721;51.238;9.562;2024-01-10T14:38:51;15.90;;;4.53;;
3415;SDS011;1721;51.238;9.562;2024-01-10T14:41:16;9.30;;;3.90;;
3415;SDS011;1721;51.238;9.562;2024-01-10T14:43:42;8.00;;;4.73;;
3415;SDS011;1721;51.238;9.562;2024-01-10T14:46:08;12.93;;;6.00;;
3415;SDS011;1721;51.238;9.562;2024-01-10T14:48:35;8.38;;;4.45;;
3415;SDS011;1721;51.238;9.562;2024-01-10T14:51:02;10.65;;;4.60;;
3415;SDS011;1721;51.238;9.562;2024-01-10T14:53:29;10.48;;;5.47;;
3415;SDS011;1721;51.238;9.562;2024-01-10T14:55:55;20.97;;;3.60;;
3415;SDS011;1721;51.238;9.562;2024-01-10T14:58:20;10.30;;;4.03;;
3415;SDS011;1721;51.238;9.562;2024-01-10T15:00:46;11.20;;;4.93;;
3415;SDS011;1721;51.238;9.562;2024-01-10T15:03:11;14.97;;;4.03;;
3415;SDS011;1721;51.238;9.562;2024-01-10T15:05:39;12.77;;;4.90;;
3415;SDS011;1721;51.238;9.562;2024-01-10T15:08:06;11.43;;;4.10;;
3415;SDS011;1721;51.238;9.562;2024-01-10T15:10:32;14.05;;;4.07;;
3415;SDS011;1721;51.238;9.562;2024-01-10T15:12:58;17.20;;;4.87;;
3415;SDS011;1721;51.238;9.562;2024-01-10T15:15:24;11.13;;;6.53;;
3415;SDS011;1721;51.238;9.562;2024-01-10T15:17:50;12.93;;;4.43;;